createdAt,value
2019-04-19T00:00:26.523Z,99157.63
2019-04-19T00:02:33.448Z,99168.77
2019-04-19T00:04:29.330Z,99168.83
2019-04-19T00:06:35.800Z,99166.66
2019-04-19T00:08:43.537Z,99164.08
2019-04-19T00:10:44.685Z,99158.55
2019-04-19T00:12:46.048Z,99166.62
2019-04-19T00:14:37.863Z,99165.79
2019-04-19T00:16:40.517Z,99166.61
2019-04-19T00:18:47.822Z,99167.51
2019-04-19T00:21:02.712Z,99172.20
2019-04-19T00:22:58.270Z,99167.52
2019-04-19T00:24:45.925Z,99173.47
2019-04-19T00:26:48.617Z,99171.34
2019-04-19T00:28:54.479Z,99169.63
2019-04-19T00:30:59.431Z,99164.09
2019-04-19T00:33:05.459Z,99168.80
2019-04-19T00:34:54.698Z,99165.38
2019-04-19T00:36:55.824Z,99160.70
2019-04-19T00:39:15.182Z,99163.70
2019-04-19T00:41:18.818Z,99170.52
2019-04-19T00:43:26.324Z,99165.42
2019-04-19T00:45:38.340Z,99166.69
2019-04-19T00:47:46.453Z,99167.52
2019-04-19T00:49:41.470Z,99166.27
2019-04-19T00:51:43.121Z,99166.23
2019-04-19T00:53:40.593Z,99169.22
2019-04-19T00:55:47.153Z,99167.96
2019-04-19T00:57:42.032Z,99170.51
2019-04-19T00:59:41.690Z,99169.67
2019-04-19T01:01:38.068Z,99174.78
2019-04-19T01:03:44.559Z,99176.04
2019-04-19T01:05:47.407Z,99184.16
2019-04-19T01:07:43.737Z,99187.11
2019-04-19T01:10:03.328Z,99181.14
2019-04-19T01:12:03.131Z,99186.68
2019-04-19T01:14:01.396Z,99185.83
2019-04-19T01:16:02.210Z,99182.00
2019-04-19T01:18:09.916Z,99182.44
2019-04-19T01:19:58.728Z,99187.12
2019-04-19T01:21:55.403Z,99188.41
2019-04-19T01:23:59.080Z,99181.14
2019-04-19T01:26:03.050Z,99182.83
2019-04-19T01:28:08.769Z,99189.20
2019-04-19T01:30:04.780Z,99184.97
2019-04-19T01:32:11.372Z,99189.66
2019-04-19T01:34:11.988Z,99199.03
2019-04-19T01:36:10.372Z,99196.89
2019-04-19T01:38:12.295Z,99189.64
2019-04-19T01:40:27.414Z,99195.62
2019-04-19T01:42:32.256Z,99194.38
2019-04-19T01:44:33.443Z,99195.66
2019-04-19T01:46:40.927Z,99202.89
2019-04-19T01:48:43.197Z,99199.91
2019-04-19T01:50:58.681Z,99201.63
2019-04-19T01:53:06.188Z,99200.78
2019-04-19T01:54:54.498Z,99200.74
2019-04-19T01:56:52.188Z,99195.64
2019-04-19T01:58:52.672Z,99206.23
2019-04-19T02:00:52.134Z,99198.49
2019-04-19T02:02:54.846Z,99201.44
2019-04-19T02:04:59.838Z,99200.51
2019-04-19T02:06:54.791Z,99200.44
2019-04-19T02:08:59.192Z,99197.41
2019-04-19T02:11:05.520Z,99199.92
2019-04-19T02:13:08.649Z,99202.45
2019-04-19T02:15:07.875Z,99199.88
2019-04-19T02:17:06.937Z,99203.23
2019-04-19T02:19:09.751Z,99200.73
2019-04-19T02:21:06.767Z,99199.03
2019-04-19T02:23:12.511Z,99201.15
2019-04-19T02:25:15.971Z,99195.53
2019-04-19T02:27:13.466Z,99204.83
2019-04-19T02:29:17.795Z,99208.68
2019-04-19T02:31:37.316Z,99198.86
2019-04-19T02:33:39.210Z,99204.81
2019-04-19T02:35:46.007Z,99203.20
2019-04-19T02:37:43.690Z,99201.11
2019-04-19T02:39:51.027Z,99199.42
2019-04-19T02:41:58.080Z,99195.20
2019-04-19T02:46:09.813Z,99202.89
2019-04-19T02:48:11.194Z,99191.39
2019-04-19T02:49:57.988Z,99195.66
2019-04-19T02:51:59.522Z,99195.66
2019-04-19T02:54:02.329Z,99200.35
2019-04-19T02:56:12.517Z,99199.08
2019-04-19T03:04:38.149Z,99206.71
2019-04-19T03:06:13.322Z,99209.30
2019-04-19T03:07:59.719Z,99204.61
2019-04-19T03:10:04.936Z,99213.16
2019-04-19T03:12:19.812Z,99208.05
2019-04-19T03:14:16.431Z,99208.08
2019-04-19T03:16:25.207Z,99192.02
2019-04-19T03:18:39.874Z,99212.38
2019-04-19T03:20:24.667Z,99222.64
2019-04-19T03:22:42.279Z,99221.38
2019-04-19T03:24:24.021Z,99214.57
2019-04-19T03:26:30.871Z,99219.25
2019-04-19T03:28:25.737Z,99219.70
2019-04-19T03:30:42.438Z,99220.12
2019-04-19T03:32:54.169Z,99221.84
2019-04-19T03:36:39.097Z,99212.43
2019-04-19T03:38:40.485Z,99220.50
2019-04-19T03:40:44.372Z,99213.70
2019-04-19T03:42:56.643Z,99210.33
2019-04-19T03:45:01.670Z,99214.20
2019-04-19T03:47:04.311Z,99218.89
2019-04-19T03:49:01.372Z,99213.39
2019-04-19T03:51:08.787Z,99223.64
2019-04-19T03:53:05.820Z,99218.08
2019-04-19T03:55:08.771Z,99224.48
2019-04-19T03:57:04.735Z,99218.94
2019-04-19T03:58:54.723Z,99221.92
2019-04-19T04:00:56.014Z,99224.88
2019-04-19T04:03:01.142Z,99226.11
2019-04-19T04:05:04.414Z,99226.94
2019-04-19T04:07:10.388Z,99223.92
2019-04-19T04:09:07.621Z,99233.64
2019-04-19T04:11:24.957Z,99235.75
2019-04-19T04:13:38.457Z,99236.59
2019-04-19T04:15:56.986Z,99237.03
2019-04-19T04:17:45.718Z,99238.76
2019-04-19T04:19:48.326Z,99247.76
2019-04-19T04:21:51.294Z,99244.34
2019-04-19T04:23:59.949Z,99242.65
2019-04-19T04:26:00.634Z,99245.65
2019-04-19T04:28:05.081Z,99247.82
2019-04-19T04:30:06.114Z,99250.75
2019-04-19T04:32:08.343Z,99253.75
2019-04-19T04:34:10.219Z,99252.83
2019-04-19T04:36:20.873Z,99257.95
2019-04-19T04:38:11.179Z,99254.95
2019-04-19T04:40:04.295Z,99254.53
2019-04-19T04:42:17.407Z,99252.38
2019-04-19T04:44:24.449Z,99260.45
2019-04-19T04:46:36.926Z,99263.89
2019-04-19T04:48:40.638Z,99262.59
2019-04-19T04:50:50.798Z,99263.89
2019-04-19T04:52:40.252Z,99272.84
2019-04-19T04:54:42.399Z,99271.55
2019-04-19T04:56:54.036Z,99272.40
2019-04-19T04:58:49.051Z,99277.50
2019-04-19T05:00:56.142Z,99272.83
2019-04-19T05:03:06.132Z,99277.94
2019-04-19T05:05:10.014Z,99287.31
2019-04-19T05:07:10.203Z,99286.89
2019-04-19T05:09:15.933Z,99289.44
2019-04-19T05:11:16.790Z,99289.42
2019-04-19T05:13:19.014Z,99283.86
2019-04-19T05:15:24.151Z,99287.73
2019-04-19T05:17:33.318Z,99292.48
2019-04-19T05:19:17.783Z,99292.44
2019-04-19T05:21:22.719Z,99295.02
2019-04-19T05:23:22.566Z,99295.02
2019-04-19T05:25:30.822Z,99286.91
2019-04-19T05:27:33.289Z,99298.86
2019-04-19T05:29:23.212Z,99298.02
2019-04-19T05:31:22.720Z,99297.59
2019-04-19T05:33:26.944Z,99297.59
2019-04-19T05:35:30.232Z,99299.32
2019-04-19T05:37:57.043Z,99297.20
2019-04-19T05:39:59.550Z,99300.22
2019-04-19T05:41:59.720Z,99298.94
2019-04-19T05:44:14.277Z,99289.14
2019-04-19T05:46:17.769Z,99285.78
2019-04-19T05:48:00.446Z,99303.20
2019-04-19T05:50:17.135Z,99299.80
2019-04-19T05:52:19.465Z,99300.22
2019-04-19T05:54:03.245Z,99298.52
2019-04-19T05:55:58.675Z,99301.05
2019-04-19T05:58:11.386Z,99296.80
2019-04-19T06:00:18.269Z,99300.21
2019-04-19T06:02:15.502Z,99298.94
2019-04-19T06:04:21.112Z,99298.07
2019-04-19T06:06:33.567Z,99298.05
2019-04-19T06:08:18.342Z,99297.98
2019-04-19T06:10:12.345Z,99299.68
2019-04-19T06:12:18.053Z,99300.13
2019-04-19T06:14:43.374Z,99306.09
2019-04-19T06:16:30.790Z,99313.80
2019-04-19T06:18:52.239Z,99307.83
2019-04-19T06:20:56.403Z,99313.76
2019-04-19T06:22:58.336Z,99310.34
2019-04-19T06:24:55.601Z,99311.52
2019-04-19T06:29:06.750Z,99302.05
2019-04-19T06:31:12.759Z,99304.71
2019-04-19T06:33:08.094Z,99309.94
2019-04-19T06:35:06.813Z,99311.81
2019-04-19T06:37:01.538Z,99316.12
2019-04-19T06:38:53.130Z,99310.96
2019-04-19T06:41:03.390Z,99321.19
2019-04-19T06:43:04.908Z,99319.44
2019-04-19T06:45:19.448Z,99316.88
2019-04-19T06:47:10.633Z,99316.92
2019-04-19T06:49:07.408Z,99322.05
2019-04-19T06:51:14.611Z,99317.78
2019-04-19T06:53:05.854Z,99321.65
2019-04-19T06:55:14.317Z,99318.67
2019-04-19T06:57:17.977Z,99316.54
2019-04-19T06:59:18.205Z,99319.96
2019-04-19T07:01:21.582Z,99324.63
2019-04-19T07:03:14.380Z,99325.03
2019-04-19T07:05:28.011Z,99327.57
2019-04-19T07:07:36.468Z,99331.80
2019-04-19T07:09:47.638Z,99327.12
2019-04-19T07:11:46.377Z,99331.37
2019-04-19T07:13:36.189Z,99330.50
2019-04-19T07:15:50.062Z,99333.05
2019-04-19T07:17:37.704Z,99332.18
2019-04-19T07:19:46.931Z,99328.36
2019-04-19T07:21:46.932Z,99338.63
2019-04-19T07:23:48.800Z,99336.95
2019-04-19T07:25:56.705Z,99335.25
2019-04-19T07:27:46.765Z,99334.37
2019-04-19T07:29:35.834Z,99338.63
2019-04-19T07:31:38.138Z,99339.08
2019-04-19T07:33:49.403Z,99334.38
2019-04-19T07:36:01.914Z,99330.53
2019-04-19T07:38:00.289Z,99315.64
2019-04-19T07:40:05.730Z,99341.98
2019-04-19T07:44:09.917Z,99341.08
2019-04-19T07:46:19.406Z,99338.88
2019-04-19T07:48:08.976Z,99344.85
2019-04-19T07:50:11.144Z,99345.75
2019-04-19T07:52:14.642Z,99373.05
2019-04-19T07:54:12.610Z,99344.88
2019-04-19T07:56:23.802Z,99344.83
2019-04-19T07:58:37.470Z,99348.73
2019-04-19T08:04:48.583Z,99347.87
2019-04-19T08:12:46.133Z,99354.23
2019-04-19T08:15:06.848Z,99355.09
2019-04-19T08:28:45.459Z,99345.80
2019-04-19T08:30:45.306Z,99349.20
2019-04-19T08:32:40.476Z,99348.36
2019-04-19T08:34:41.477Z,99346.20
2019-04-19T08:36:49.768Z,99345.37
2019-04-19T08:39:04.465Z,99349.59
2019-04-19T08:41:02.303Z,99352.16
2019-04-19T08:43:07.322Z,99348.31
2019-04-19T08:44:57.612Z,99348.69
2019-04-19T08:47:17.502Z,99347.40
2019-04-19T08:49:22.174Z,99352.53
2019-04-19T08:51:28.833Z,99346.17
2019-04-19T08:53:41.492Z,99341.91
2019-04-19T08:55:47.618Z,99319.39
2019-04-19T08:57:30.497Z,99345.74
2019-04-19T08:59:50.358Z,99348.75
2019-04-19T09:01:50.879Z,99353.49
2019-04-19T09:03:58.340Z,99351.00
2019-04-19T09:06:01.007Z,99351.86
2019-04-19T09:07:53.556Z,99344.59
2019-04-19T09:10:13.047Z,99350.97
2019-04-19T09:11:57.465Z,99348.36
2019-04-19T09:14:00.364Z,99341.98
2019-04-19T09:16:02.328Z,99321.98
2019-04-19T09:18:25.048Z,99346.20
2019-04-19T09:20:19.549Z,99343.23
2019-04-19T09:22:04.081Z,99335.55
2019-04-19T09:23:57.351Z,99343.63
2019-04-19T09:26:03.551Z,99338.95
2019-04-19T09:28:19.580Z,99344.50
2019-04-19T09:30:19.126Z,99340.25
2019-04-19T09:32:06.296Z,99339.84
2019-04-19T09:34:03.772Z,99346.72
2019-04-19T09:36:05.938Z,99335.23
2019-04-19T09:38:10.483Z,99338.19
2019-04-19T09:40:08.307Z,99335.18
2019-04-19T09:42:15.627Z,99347.95
2019-04-19T09:44:14.152Z,99328.41
2019-04-19T09:46:08.214Z,99330.91
2019-04-19T09:48:25.239Z,99327.90
2019-04-19T09:50:29.705Z,99330.04
2019-04-19T09:52:39.329Z,99340.72
2019-04-19T09:54:41.601Z,99335.58
2019-04-19T09:56:34.159Z,99333.87
2019-04-19T09:58:36.881Z,99331.31
2019-04-19T10:00:23.504Z,99331.31
2019-04-19T10:02:29.901Z,99324.50
2019-04-19T10:04:23.563Z,99322.37
2019-04-19T10:06:26.751Z,99326.22
2019-04-19T10:08:30.540Z,99330.09
2019-04-19T10:10:31.159Z,99321.14
2019-04-19T10:12:31.691Z,99323.23
2019-04-19T10:14:33.540Z,99319.36
2019-04-19T10:16:36.854Z,99323.20
2019-04-19T10:18:50.213Z,99320.23
2019-04-19T10:20:58.791Z,99322.34
2019-04-19T10:23:02.205Z,99313.80
2019-04-19T10:25:03.146Z,99307.42
2019-04-19T10:27:06.929Z,99309.57
2019-04-19T10:29:16.731Z,99311.27
2019-04-19T10:31:09.299Z,99315.95
2019-04-19T10:33:10.827Z,99316.80
2019-04-19T10:35:13.407Z,99312.95
2019-04-19T10:37:13.943Z,99312.09
2019-04-19T10:39:17.295Z,99313.34
2019-04-19T10:41:19.789Z,99317.59
2019-04-19T10:43:21.071Z,99310.30
2019-04-19T10:45:22.189Z,99308.61
2019-04-19T10:47:26.254Z,99312.00
2019-04-19T10:49:33.977Z,99304.30
2019-04-19T10:51:30.020Z,99299.16
2019-04-19T10:53:32.442Z,99298.31
2019-04-19T10:55:34.126Z,99294.06
2019-04-19T10:57:35.567Z,99299.20
2019-04-19T10:59:36.678Z,99300.91
2019-04-19T11:01:39.082Z,99296.66
2019-04-19T11:03:41.117Z,99291.57
2019-04-19T11:05:42.774Z,99329.94
2019-04-19T11:07:43.625Z,99290.72
2019-04-19T11:09:45.820Z,99292.84
2019-04-19T11:11:47.612Z,99289.88
2019-04-19T11:13:48.329Z,99297.16
2019-04-19T11:15:49.920Z,99294.16
2019-04-19T11:17:51.820Z,99290.31
2019-04-19T11:20:05.946Z,99286.04
2019-04-19T11:21:55.920Z,99279.66
2019-04-19T11:23:57.730Z,99283.92
2019-04-19T11:25:58.937Z,99180.26
2019-04-19T11:28:00.832Z,99281.39
2019-04-19T11:30:01.532Z,99276.26
2019-04-19T11:32:12.156Z,99277.02
2019-04-19T11:34:13.130Z,99285.03
2019-04-19T11:36:15.345Z,99276.91
2019-04-19T11:38:15.736Z,99281.12
2019-04-19T11:40:17.426Z,99273.86
2019-04-19T11:42:19.277Z,99274.22
2019-04-19T11:44:22.932Z,99273.80
2019-04-19T11:46:22.388Z,99271.67
2019-04-19T11:48:24.718Z,99280.58
2019-04-19T11:50:25.684Z,99277.55
2019-04-19T11:52:30.114Z,99275.39
2019-04-19T11:54:32.533Z,99273.26
2019-04-19T11:56:45.536Z,99272.41
2019-04-19T11:58:38.374Z,99271.98
2019-04-19T12:00:41.997Z,99273.19
2019-04-19T12:02:42.456Z,99264.23
2019-04-19T12:04:44.117Z,99265.08
2019-04-19T12:06:46.105Z,99265.08
2019-04-19T12:08:48.509Z,99262.52
2019-04-19T12:10:50.398Z,99265.08
2019-04-19T12:12:51.093Z,99264.22
2019-04-19T12:14:53.371Z,99267.23
2019-04-19T12:16:55.142Z,99260.41
2019-04-19T12:18:55.909Z,99262.56
2019-04-19T12:20:57.573Z,99267.69
2019-04-19T12:23:00.026Z,99259.58
2019-04-19T12:25:01.485Z,99265.56
2019-04-19T12:27:03.323Z,99259.55
2019-04-19T12:29:06.160Z,99260.44
2019-04-19T12:31:07.289Z,99249.77
2019-04-19T12:33:08.946Z,99256.98
2019-04-19T12:35:09.364Z,99248.91
2019-04-19T12:37:11.109Z,99250.56
2019-04-19T12:39:12.706Z,99247.16
2019-04-19T12:41:14.378Z,99245.84
2019-04-19T12:43:17.448Z,99250.06
2019-04-19T12:45:17.814Z,99249.22
2019-04-19T12:47:19.327Z,99247.08
2019-04-19T12:49:20.937Z,99242.00
2019-04-19T12:51:23.856Z,99238.26
2019-04-19T12:53:25.257Z,99236.20
2019-04-19T12:55:26.137Z,99239.66
2019-04-19T12:57:27.857Z,99238.42
2019-04-19T12:59:29.536Z,99241.00
2019-04-19T13:01:32.091Z,99240.18
2019-04-19T13:03:52.448Z,99235.50
2019-04-19T13:05:53.404Z,99237.66
2019-04-19T13:07:54.740Z,99232.56
2019-04-19T13:09:57.189Z,99224.91
2019-04-19T13:11:58.978Z,99226.21
2019-04-19T13:13:59.863Z,99226.66
2019-04-19T13:16:01.473Z,99224.97
2019-04-19T13:18:04.321Z,99224.57
2019-04-19T13:20:12.738Z,99215.20
2019-04-19T13:22:06.464Z,99210.93
2019-04-19T13:24:08.799Z,99212.66
2019-04-19T13:26:09.712Z,99211.83
2019-04-19T13:28:11.414Z,99224.19
2019-04-19T13:30:22.531Z,99210.16
2019-04-19T13:32:15.570Z,99207.16
2019-04-19T13:34:16.800Z,99216.14
2019-04-19T13:36:19.304Z,99208.91
2019-04-19T13:38:19.668Z,99217.03
2019-04-19T13:40:26.086Z,99211.08
2019-04-19T13:42:26.783Z,99205.53
2019-04-19T13:44:29.216Z,99203.85
2019-04-19T13:46:30.756Z,99204.72
2019-04-19T13:48:32.485Z,99206.94
2019-04-19T13:50:37.324Z,99201.50
2019-04-19T13:52:34.812Z,99198.44
2019-04-19T13:54:36.641Z,99204.41
2019-04-19T13:56:38.541Z,99199.66
2019-04-19T13:58:39.953Z,99196.83
2019-04-19T14:00:42.456Z,99143.38
2019-04-19T14:02:43.334Z,99189.73
2019-04-19T14:04:44.737Z,99186.91
2019-04-19T14:06:46.553Z,99195.95
2019-04-19T14:08:48.990Z,99184.67
2019-04-19T14:10:50.894Z,99182.61
2019-04-19T14:12:51.457Z,99185.60
2019-04-19T14:14:53.019Z,99177.91
2019-04-19T14:16:55.629Z,99177.91
2019-04-19T14:18:56.326Z,99177.02
2019-04-19T14:20:59.101Z,99179.39
2019-04-19T14:22:59.712Z,99179.27
2019-04-19T14:25:01.355Z,99177.27
2019-04-19T14:27:04.090Z,99170.81
2019-04-19T14:29:05.411Z,99183.02
2019-04-19T14:31:06.785Z,99180.53
2019-04-19T14:33:08.370Z,99179.79
2019-04-19T14:35:10.144Z,99170.37
2019-04-19T14:37:14.044Z,99167.45
2019-04-19T14:39:13.124Z,99168.48
2019-04-19T14:41:15.589Z,99172.57
2019-04-19T14:43:16.497Z,99159.21
2019-04-19T14:45:18.096Z,99167.23
2019-04-19T14:47:21.117Z,99166.41
2019-04-19T14:49:22.850Z,99164.70
2019-04-19T14:51:27.975Z,99164.23
2019-04-19T14:53:26.633Z,99159.06
2019-04-19T14:55:27.611Z,99161.57
2019-04-19T14:57:29.245Z,99153.19
2019-04-19T14:59:31.541Z,99147.19
2019-04-19T15:01:35.023Z,99155.20
2019-04-19T15:03:36.886Z,99155.26
2019-04-19T15:05:37.507Z,99157.55
2019-04-19T15:07:38.945Z,99124.76
2019-04-19T15:09:41.642Z,99133.11
2019-04-19T15:11:43.469Z,99145.73
2019-04-19T15:13:44.329Z,99155.95
2019-04-19T15:15:45.735Z,99153.04
2019-04-19T15:17:47.620Z,99152.45
2019-04-19T15:19:48.903Z,99146.05
2019-04-19T15:21:50.488Z,99147.48
2019-04-19T15:23:52.432Z,99144.38
2019-04-19T15:25:54.582Z,99146.17
2019-04-19T15:27:55.398Z,99139.16
2019-04-19T15:29:57.012Z,99147.05
2019-04-19T15:31:59.888Z,99145.91
2019-04-19T15:34:00.837Z,99143.39
2019-04-19T15:36:03.508Z,99122.95
2019-04-19T15:38:04.221Z,99148.56
2019-04-19T15:40:05.813Z,99148.72
2019-04-19T15:42:08.498Z,99139.44
2019-04-19T15:44:09.083Z,99145.38
2019-04-19T15:46:11.532Z,99140.72
2019-04-19T15:48:14.035Z,99141.20
2019-04-19T15:50:14.038Z,99136.92
2019-04-19T15:52:15.648Z,99140.37
2019-04-19T15:54:18.240Z,99143.73
2019-04-19T15:56:20.263Z,99140.20
2019-04-19T15:58:20.750Z,99142.52
2019-04-19T16:00:22.391Z,99137.52
2019-04-19T16:02:29.838Z,99134.13
2019-04-19T16:04:37.703Z,99134.61
2019-04-19T16:06:41.135Z,99139.76
2019-04-19T16:08:52.798Z,99136.80
2019-04-19T16:11:00.422Z,99141.95
2019-04-19T16:13:02.242Z,99141.98
2019-04-19T16:15:04.114Z,99140.30
2019-04-19T16:17:05.265Z,99137.61
2019-04-19T16:19:07.832Z,99132.50
2019-04-19T16:21:20.101Z,99138.87
2019-04-19T16:23:10.234Z,99132.11
2019-04-19T16:25:12.781Z,99138.50
2019-04-19T16:27:13.478Z,99138.50
2019-04-19T16:29:24.217Z,99133.41
2019-04-19T16:31:17.935Z,99138.13
2019-04-19T16:33:18.376Z,99134.75
2019-04-19T16:35:20.114Z,99132.64
2019-04-19T16:37:21.716Z,99138.64
2019-04-19T16:39:23.774Z,99134.41
2019-04-19T16:41:25.024Z,99133.59
2019-04-19T16:43:26.632Z,99130.20
2019-04-19T16:45:28.256Z,99126.00
2019-04-19T16:47:31.144Z,99131.55
2019-04-19T16:49:31.504Z,99132.83
2019-04-19T16:51:41.565Z,99132.02
2019-04-19T16:53:36.014Z,99143.12
2019-04-19T16:55:36.438Z,99135.46
2019-04-19T16:57:38.588Z,98743.12
2019-04-19T16:59:39.793Z,99137.20
2019-04-19T17:01:41.352Z,99134.68
2019-04-19T17:03:43.706Z,99132.99
2019-04-19T17:05:44.742Z,99142.38
2019-04-19T17:07:46.210Z,99132.19
2019-04-19T17:09:47.794Z,99140.25
2019-04-19T17:11:49.436Z,99135.16
2019-04-19T17:13:51.088Z,99138.16
2019-04-19T17:15:54.933Z,99139.00
2019-04-19T17:17:58.554Z,99142.42
2019-04-19T17:20:00.522Z,99136.02
2019-04-19T17:22:08.815Z,99142.42
2019-04-19T17:24:03.374Z,99142.88
2019-04-19T17:26:04.971Z,99143.28
2019-04-19T17:28:07.015Z,99142.02
2019-04-19T17:30:08.386Z,99142.45
2019-04-19T17:32:10.139Z,99151.42
2019-04-19T17:34:11.985Z,99153.56
2019-04-19T17:36:14.296Z,99152.30
2019-04-19T17:38:27.130Z,99150.18
2019-04-19T17:40:16.551Z,99151.86
2019-04-19T17:42:18.844Z,99153.16
2019-04-19T17:44:19.848Z,99158.28
2019-04-19T17:46:22.297Z,99154.47
2019-04-19T17:48:23.122Z,99156.16
2019-04-19T17:50:24.989Z,99150.64
2019-04-19T17:52:31.052Z,99146.41
2019-04-19T17:54:47.501Z,99149.81
2019-04-19T17:56:29.664Z,99156.19
2019-04-19T17:58:31.260Z,99159.16
2019-04-19T18:00:32.851Z,99161.30
2019-04-19T18:02:35.165Z,99159.16
2019-04-19T18:04:36.122Z,99164.28
2019-04-19T18:06:38.334Z,99154.94
2019-04-19T18:08:39.896Z,99166.44
2019-04-19T18:10:47.099Z,99158.34
2019-04-19T18:12:43.301Z,99160.48
2019-04-19T18:14:45.446Z,99164.75
2019-04-19T18:16:45.980Z,99165.59
2019-04-19T18:18:50.662Z,99165.59
2019-04-19T18:20:52.527Z,99169.84
2019-04-19T18:23:00.739Z,99172.42
2019-04-19T18:24:57.041Z,99169.42
2019-04-19T18:27:02.173Z,99175.83
2019-04-19T18:28:55.920Z,99177.94
2019-04-19T18:30:59.247Z,99174.55
2019-04-19T18:32:59.868Z,99173.27
2019-04-19T18:35:02.259Z,99178.81
2019-04-19T18:37:05.006Z,99179.22
2019-04-19T18:39:06.375Z,99177.11
2019-04-19T18:41:07.212Z,99182.64
2019-04-19T18:43:23.779Z,99177.96
2019-04-19T18:45:18.400Z,99175.41
2019-04-19T18:47:12.362Z,99182.21
2019-04-19T18:49:13.808Z,99177.08
2019-04-19T18:51:20.750Z,99175.81
2019-04-19T18:53:27.377Z,99181.33
2019-04-19T18:55:27.536Z,99183.42
2019-04-19T18:57:20.398Z,99186.83
2019-04-19T18:59:25.373Z,99182.58
2019-04-19T19:01:31.043Z,99185.13
2019-04-19T19:03:26.300Z,99185.95
2019-04-19T19:05:28.087Z,99190.22
2019-04-19T19:07:30.973Z,99189.81
2019-04-19T19:09:36.014Z,99194.50
2019-04-19T19:11:32.728Z,99185.14
2019-04-19T19:13:36.149Z,99190.69
2019-04-19T19:15:43.229Z,99188.55
2019-04-19T19:17:38.151Z,99187.73
2019-04-19T19:19:41.248Z,99186.44
2019-04-19T19:21:43.621Z,99200.06
2019-04-19T19:23:57.296Z,99186.03
2019-04-19T19:25:51.153Z,99180.09
2019-04-19T19:27:46.117Z,99190.28
2019-04-19T19:29:48.137Z,99184.34
2019-04-19T19:31:48.635Z,99185.18
2019-04-19T19:33:51.883Z,99186.04
2019-04-19T19:35:55.559Z,99190.28
2019-04-19T19:37:54.672Z,99188.61
2019-04-19T19:40:04.794Z,99186.88
2019-04-19T19:44:09.973Z,99190.28
2019-04-19T19:46:22.970Z,99186.45
2019-04-19T19:48:26.129Z,99185.56
2019-04-19T19:50:29.371Z,99194.09
2019-04-19T19:52:22.412Z,99191.09
2019-04-19T19:56:37.465Z,99172.38
2019-04-19T19:58:22.392Z,99198.73
2019-04-19T20:00:20.689Z,99191.51
2019-04-19T20:02:28.013Z,99190.14
2019-04-19T20:04:17.075Z,99194.67
2019-04-19T20:06:22.621Z,99147.20
2019-04-19T20:08:26.732Z,99189.98
2019-04-19T20:10:25.909Z,99215.69
2019-04-19T20:12:27.335Z,99192.80
2019-04-19T20:14:31.623Z,99188.78
2019-04-19T20:16:30.084Z,99184.56
2019-04-19T20:18:35.616Z,99186.19
2019-04-19T20:20:34.157Z,99183.73
2019-04-19T20:22:36.504Z,99191.58
2019-04-19T20:24:46.049Z,99188.33
2019-04-19T20:26:45.882Z,99183.31
2019-04-19T20:28:37.897Z,99187.63
2019-04-19T20:30:43.255Z,99183.75
2019-04-19T20:32:40.809Z,99189.81
2019-04-19T20:34:41.884Z,99234.84
2019-04-19T20:36:45.341Z,99183.95
2019-04-19T20:38:51.981Z,99194.86
2019-04-19T20:40:54.607Z,99192.54
2019-04-19T20:43:10.718Z,99190.60
2019-04-19T20:45:00.391Z,99190.53
2019-04-19T20:46:52.461Z,99198.15
2019-04-19T20:48:59.301Z,99197.25
2019-04-19T20:51:06.464Z,99199.38
2019-04-19T20:53:16.492Z,99195.05
2019-04-19T20:55:25.207Z,99197.91
2019-04-19T20:57:33.503Z,99196.50
2019-04-19T20:59:18.175Z,99197.96
2019-04-19T21:01:18.973Z,99191.23
2019-04-19T21:03:34.783Z,99193.38
2019-04-19T21:05:35.805Z,99195.99
2019-04-19T21:07:37.173Z,99193.05
2019-04-19T21:09:37.480Z,99201.59
2019-04-19T21:11:42.006Z,99190.11
2019-04-19T21:13:45.845Z,99197.36
2019-04-19T21:15:41.668Z,99199.06
2019-04-19T21:17:44.772Z,99199.94
2019-04-19T21:19:47.173Z,99198.25
2019-04-19T21:21:48.136Z,99196.14
2019-04-19T21:23:56.815Z,99205.52
2019-04-19T21:25:55.335Z,99201.72
2019-04-19T21:27:55.227Z,99204.27
2019-04-19T21:29:52.171Z,99201.73
2019-04-19T21:31:57.292Z,99204.70
2019-04-19T21:33:58.146Z,99208.53
2019-04-19T21:36:02.616Z,99208.95
2019-04-19T21:38:08.234Z,99206.41
2019-04-19T21:40:01.734Z,99205.98
2019-04-19T21:42:05.058Z,99206.41
2019-04-19T21:44:05.020Z,99206.42
2019-04-19T21:46:05.609Z,99205.98
2019-04-19T21:48:07.043Z,99203.84
2019-04-19T21:50:09.009Z,99206.38
2019-04-19T21:52:15.397Z,99202.58
2019-04-19T21:54:12.483Z,99197.47
2019-04-19T21:56:16.497Z,99200.03
2019-04-19T21:58:19.518Z,99182.61
2019-04-19T22:00:21.140Z,99205.98
2019-04-19T22:02:27.780Z,99205.59
2019-04-19T22:04:21.317Z,99204.74
2019-04-19T22:06:27.625Z,99201.34
2019-04-19T22:08:28.915Z,99204.33
2019-04-19T22:10:34.472Z,99204.73
2019-04-19T22:12:28.114Z,99202.61
2019-04-19T22:14:31.322Z,99197.94
2019-04-19T22:16:35.656Z,99195.39
2019-04-19T22:18:38.613Z,99199.22
2019-04-19T22:20:34.534Z,99194.95
2019-04-19T22:22:35.812Z,99199.64
2019-04-19T22:24:39.476Z,99204.74
2019-04-19T22:26:47.066Z,99192.83
2019-04-19T22:28:40.125Z,99192.83
2019-04-19T22:30:45.466Z,99195.81
2019-04-19T22:32:51.233Z,99198.77
2019-04-19T22:34:46.364Z,99195.80
2019-04-19T22:36:50.314Z,99197.95
2019-04-19T22:38:53.617Z,99199.66
2019-04-19T22:40:50.516Z,99197.53
2019-04-19T22:43:01.612Z,99194.95
2019-04-19T22:44:54.451Z,99201.34
2019-04-19T22:46:56.632Z,99199.63
2019-04-19T22:49:02.935Z,99190.67
2019-04-19T22:51:07.524Z,99190.25
2019-04-19T22:53:00.742Z,99188.14
2019-04-19T22:55:06.712Z,99194.94
2019-04-19T22:57:11.978Z,99191.11
2019-04-19T22:59:11.119Z,99197.50
2019-04-19T23:01:07.705Z,99186.43
2019-04-19T23:03:14.280Z,99191.95
2019-04-19T23:05:14.853Z,99191.13
2019-04-19T23:07:16.578Z,99189.84
2019-04-19T23:09:19.806Z,99191.95
2019-04-19T23:11:19.393Z,99192.41
2019-04-19T23:13:20.068Z,99194.95
2019-04-19T23:15:26.520Z,99190.30
2019-04-19T23:17:31.882Z,99195.83
2019-04-19T23:19:25.546Z,99190.73
2019-04-19T23:21:26.744Z,99187.75
2019-04-19T23:23:32.572Z,99194.55
2019-04-19T23:25:36.272Z,99195.41
2019-04-19T23:27:40.769Z,99191.98
2019-04-19T23:29:36.144Z,99188.16
2019-04-19T23:31:41.272Z,99189.00
2019-04-19T23:33:36.561Z,99187.70
2019-04-19T23:35:41.565Z,99192.78
2019-04-19T23:37:42.048Z,99187.67
2019-04-19T23:39:47.874Z,99188.95
2019-04-19T23:41:43.133Z,99186.37
2019-04-19T23:43:46.206Z,99189.32
2019-04-19T23:45:49.031Z,99185.90
2019-04-19T23:47:50.721Z,99182.89
2019-04-19T23:49:51.549Z,99188.42
2019-04-19T23:51:51.564Z,99179.89
2019-04-19T23:53:54.256Z,99180.33
2019-04-19T23:55:54.624Z,99177.80
2019-04-19T23:57:57.766Z,99174.79
